createdAt,value
2023-02-07T00:02:43.669Z,11.80
2023-02-07T00:05:48.721Z,11.23
2023-02-07T00:08:54.289Z,11.20
2023-02-07T00:11:59.024Z,11.27
2023-02-07T00:15:04.827Z,11.73
2023-02-07T00:18:09.775Z,12.13
2023-02-07T00:21:20.893Z,12.77
2023-02-07T00:24:26.208Z,12.23
2023-02-07T00:27:31.310Z,11.23
2023-02-07T00:30:36.383Z,11.73
2023-02-07T00:33:43.465Z,11.77
2023-02-07T00:36:49.376Z,12.27
2023-02-07T00:39:54.423Z,12.10
2023-02-07T00:42:59.408Z,12.50
2023-02-07T00:46:05.585Z,11.70
2023-02-07T00:49:11.443Z,10.87
2023-02-07T00:52:16.623Z,10.53
2023-02-07T00:55:21.569Z,11.77
2023-02-07T00:58:26.771Z,12.10
2023-02-07T01:01:31.907Z,12.40
2023-02-07T01:04:37.299Z,10.73
2023-02-07T01:07:42.192Z,11.40
2023-02-07T01:10:47.503Z,10.77
2023-02-07T01:13:52.858Z,9.97
2023-02-07T01:16:59.849Z,9.90
2023-02-07T01:20:07.144Z,9.87
2023-02-07T01:23:13.691Z,10.13
2023-02-07T01:26:18.799Z,10.27
2023-02-07T01:29:24.246Z,9.80
2023-02-07T01:32:28.958Z,9.87
2023-02-07T01:35:34.374Z,9.80
2023-02-07T01:38:39.547Z,9.40
2023-02-07T01:41:44.597Z,9.67
2023-02-07T01:44:52.342Z,10.13
2023-02-07T01:48:03.055Z,9.10
2023-02-07T01:51:08.219Z,8.57
2023-02-07T01:54:14.312Z,8.70
2023-02-07T01:57:22.466Z,8.90
2023-02-07T02:00:29.737Z,9.27
2023-02-07T02:03:37.700Z,9.33
2023-02-07T02:06:43.424Z,8.63
2023-02-07T02:09:48.535Z,8.50
2023-02-07T02:13:10.913Z,9.37
2023-02-07T02:16:42.754Z,10.70
2023-02-07T02:20:44.334Z,9.90
2023-02-07T02:24:10.783Z,10.20
2023-02-07T02:28:23.339Z,8.93
2023-02-07T02:31:50.235Z,11.57
2023-02-07T02:35:22.326Z,10.53
2023-02-07T02:39:08.739Z,11.33
2023-02-07T02:42:28.118Z,9.77
2023-02-07T02:45:52.936Z,10.93
2023-02-07T02:48:58.632Z,15.10
2023-02-07T02:52:05.381Z,11.97
2023-02-07T02:55:10.568Z,12.33
2023-02-07T02:58:59.045Z,12.20
2023-02-07T03:02:38.248Z,14.77
2023-02-07T03:06:22.335Z,15.83
2023-02-07T03:10:02.903Z,14.87
2023-02-07T03:13:33.945Z,14.70
2023-02-07T03:17:17.821Z,13.00
2023-02-07T03:20:31.816Z,12.13
2023-02-07T03:23:37.012Z,11.17
2023-02-07T03:26:43.836Z,12.30
2023-02-07T03:29:57.589Z,11.13
2023-02-07T03:33:10.321Z,12.10
2023-02-07T03:36:30.625Z,11.67
2023-02-07T03:39:35.696Z,13.03
2023-02-07T03:42:55.784Z,12.17
2023-02-07T03:46:01.214Z,12.53
2023-02-07T03:49:11.502Z,10.87
2023-02-07T03:52:16.414Z,10.80
2023-02-07T03:55:21.396Z,10.83
2023-02-07T03:58:28.937Z,10.47
2023-02-07T04:01:34.984Z,10.53
2023-02-07T04:04:40.067Z,10.43
2023-02-07T04:07:45.045Z,10.23
2023-02-07T04:11:04.279Z,11.03
2023-02-07T04:14:09.274Z,11.40
2023-02-07T04:17:14.067Z,12.03
2023-02-07T04:20:19.292Z,13.57
2023-02-07T04:23:24.544Z,13.00
2023-02-07T04:26:29.449Z,12.70
2023-02-07T04:29:34.450Z,11.73
2023-02-07T04:32:39.127Z,11.33
2023-02-07T04:35:44.225Z,11.77
2023-02-07T04:38:49.460Z,11.77
2023-02-07T04:41:54.889Z,10.73
2023-02-07T04:45:00.009Z,11.63
2023-02-07T04:48:05.499Z,12.10
2023-02-07T04:51:11.200Z,11.57
2023-02-07T04:54:16.165Z,10.80
2023-02-07T04:57:21.142Z,10.73
2023-02-07T05:00:26.108Z,11.17
2023-02-07T05:03:31.275Z,10.63
2023-02-07T05:06:36.322Z,10.30
2023-02-07T05:09:41.345Z,10.20
2023-02-07T05:12:46.372Z,8.23
2023-02-07T05:15:51.546Z,10.00
2023-02-07T05:18:56.506Z,13.70
2023-02-07T05:22:01.451Z,10.17
2023-02-07T05:25:06.498Z,8.37
2023-02-07T05:28:11.774Z,8.67
2023-02-07T05:31:16.685Z,9.53
2023-02-07T05:34:23.790Z,9.00
2023-02-07T05:37:28.563Z,9.20
2023-02-07T05:40:38.578Z,8.97
2023-02-07T05:43:43.423Z,8.47
2023-02-07T05:46:48.252Z,8.57
2023-02-07T05:49:53.349Z,8.40
2023-02-07T05:52:58.223Z,8.80
2023-02-07T05:56:03.304Z,9.87
2023-02-07T05:59:08.530Z,9.30
2023-02-07T06:02:13.317Z,9.20
2023-02-07T06:05:23.673Z,8.63
2023-02-07T06:08:28.604Z,9.07
2023-02-07T06:11:33.510Z,9.07
2023-02-07T06:14:41.614Z,7.93
2023-02-07T06:17:47.249Z,8.97
2023-02-07T06:20:52.471Z,9.63
2023-02-07T06:23:57.485Z,10.63
2023-02-07T06:27:02.705Z,8.57
2023-02-07T06:30:10.454Z,8.43
2023-02-07T06:33:15.695Z,8.97
2023-02-07T06:36:20.494Z,8.67
2023-02-07T06:39:25.403Z,8.77
2023-02-07T06:42:30.946Z,8.73
2023-02-07T06:45:36.011Z,8.33
2023-02-07T06:48:41.090Z,8.43
2023-02-07T06:51:45.837Z,8.70
2023-02-07T06:54:50.634Z,9.03
2023-02-07T06:57:55.765Z,8.40
2023-02-07T07:01:05.132Z,7.90
2023-02-07T07:04:10.568Z,8.03
2023-02-07T07:07:15.633Z,8.23
2023-02-07T07:10:20.692Z,9.87
2023-02-07T07:13:25.568Z,9.97
2023-02-07T07:16:30.598Z,9.47
2023-02-07T07:19:35.110Z,10.07
2023-02-07T07:22:39.800Z,9.93
2023-02-07T07:25:44.901Z,10.17
2023-02-07T07:28:50.656Z,9.97
2023-02-07T07:31:55.904Z,10.80
2023-02-07T07:35:00.863Z,10.37
2023-02-07T07:38:06.040Z,12.07
2023-02-07T07:41:10.739Z,11.30
2023-02-07T07:44:16.202Z,11.70
2023-02-07T07:47:21.363Z,11.53
2023-02-07T07:50:26.648Z,11.90
2023-02-07T07:53:31.698Z,12.70
2023-02-07T07:56:36.643Z,11.27
2023-02-07T07:59:41.549Z,10.90
2023-02-07T08:02:46.700Z,11.43
2023-02-07T08:05:52.015Z,11.67
2023-02-07T08:08:57.092Z,10.80
2023-02-07T08:12:02.176Z,12.03
2023-02-07T08:15:09.679Z,11.10
2023-02-07T08:18:14.522Z,11.87
2023-02-07T08:21:19.310Z,10.53
2023-02-07T08:24:24.712Z,11.03
2023-02-07T08:27:29.707Z,11.10
2023-02-07T08:30:35.098Z,11.37
2023-02-07T08:33:40.065Z,11.50
2023-02-07T08:36:45.091Z,12.03
2023-02-07T08:39:52.789Z,11.25
2023-02-07T08:42:58.130Z,11.18
2023-02-07T08:46:03.249Z,12.02
2023-02-07T08:49:08.161Z,11.82
2023-02-07T08:52:13.107Z,12.05
2023-02-07T08:55:18.284Z,11.02
2023-02-07T08:58:23.606Z,11.25
2023-02-07T09:01:28.448Z,11.30
2023-02-07T09:04:33.220Z,10.82
2023-02-07T09:07:38.572Z,10.88
2023-02-07T09:10:44.888Z,12.10
2023-02-07T09:13:51.379Z,12.15
2023-02-07T09:16:56.285Z,12.55
2023-02-07T09:20:01.628Z,13.20
2023-02-07T09:23:19.233Z,13.88
2023-02-07T09:26:26.585Z,13.98
2023-02-07T09:29:31.332Z,14.20
2023-02-07T09:32:36.322Z,14.05
2023-02-07T09:35:44.301Z,13.45
2023-02-07T09:38:49.586Z,12.43
2023-02-07T09:42:27.203Z,13.20
2023-02-07T09:45:37.778Z,13.23
2023-02-07T09:48:53.082Z,12.23
2023-02-07T09:51:58.733Z,13.15
2023-02-07T09:55:05.482Z,13.63
2023-02-07T09:58:19.422Z,17.00
2023-02-07T10:01:46.685Z,20.85
2023-02-07T10:04:52.962Z,14.48
2023-02-07T10:07:58.123Z,12.48
2023-02-07T10:11:24.421Z,11.93
2023-02-07T10:15:23.798Z,10.60
2023-02-07T10:18:54.069Z,12.02
2023-02-07T10:22:08.173Z,15.20
2023-02-07T10:25:49.329Z,12.07
2023-02-07T10:29:21.696Z,11.55
2023-02-07T10:32:32.232Z,15.55
2023-02-07T10:35:38.487Z,19.48
2023-02-07T10:39:09.701Z,12.95
2023-02-07T10:42:16.901Z,12.85
2023-02-07T10:45:21.873Z,12.50
2023-02-07T10:48:28.129Z,14.07
2023-02-07T10:51:39.635Z,15.48
2023-02-07T10:54:59.092Z,15.98
2023-02-07T10:58:17.803Z,14.93
2023-02-07T11:01:29.653Z,13.75
2023-02-07T11:04:42.958Z,42.13
2023-02-07T11:08:15.398Z,13.27
2023-02-07T11:11:20.506Z,25.67
2023-02-07T11:14:27.989Z,19.85
2023-02-07T11:17:34.955Z,14.70
2023-02-07T11:20:41.101Z,16.73
2023-02-07T11:23:47.558Z,13.82
2023-02-07T11:27:04.960Z,13.93
2023-02-07T11:30:22.001Z,11.45
2023-02-07T11:33:29.661Z,16.67
2023-02-07T11:36:34.748Z,15.93
2023-02-07T11:39:40.290Z,56.97
2023-02-07T11:42:48.805Z,18.90
2023-02-07T11:46:06.116Z,17.15
2023-02-07T11:49:27.091Z,14.23
2023-02-07T11:52:33.452Z,17.80
2023-02-07T11:55:41.742Z,15.65
2023-02-07T11:58:49.183Z,20.17
2023-02-07T12:02:03.426Z,16.58
2023-02-07T12:05:22.185Z,15.98
2023-02-07T12:08:34.238Z,14.88
2023-02-07T12:11:41.196Z,15.85
2023-02-07T12:14:55.464Z,14.27
2023-02-07T12:18:37.171Z,27.70
2023-02-07T12:22:08.046Z,18.42
2023-02-07T12:25:37.279Z,16.50
2023-02-07T12:29:13.185Z,13.98
2023-02-07T12:32:40.309Z,17.52
2023-02-07T12:36:26.955Z,15.98
2023-02-07T12:39:43.661Z,16.08
2023-02-07T12:43:03.594Z,15.77
2023-02-07T12:47:07.038Z,16.88
2023-02-07T12:50:59.676Z,15.90
2023-02-07T12:54:42.249Z,16.75
2023-02-07T12:58:17.336Z,14.10
2023-02-07T13:02:00.121Z,15.10
2023-02-07T13:05:37.661Z,16.23
2023-02-07T13:09:12.208Z,17.80
2023-02-07T13:12:43.758Z,16.02
2023-02-07T13:16:00.279Z,16.35
2023-02-07T13:19:29.152Z,15.63
2023-02-07T13:22:48.409Z,15.48
2023-02-07T13:25:58.157Z,16.27
2023-02-07T13:29:15.625Z,15.38
2023-02-07T13:32:24.612Z,18.80
2023-02-07T13:35:31.470Z,15.63
2023-02-07T13:38:49.529Z,15.20
2023-02-07T13:42:17.241Z,14.20
2023-02-07T13:45:46.298Z,16.13
2023-02-07T13:48:58.106Z,16.75
2023-02-07T13:52:30.199Z,17.10
2023-02-07T13:55:38.894Z,17.33
2023-02-07T13:59:02.572Z,16.27
2023-02-07T14:02:19.274Z,14.45
2023-02-07T14:05:40.255Z,17.42
2023-02-07T14:08:45.626Z,17.17
2023-02-07T14:12:06.957Z,23.63
2023-02-07T14:15:36.445Z,23.35
2023-02-07T14:18:59.696Z,18.83
2023-02-07T14:22:29.752Z,17.52
2023-02-07T14:25:34.749Z,16.85
2023-02-07T14:28:39.503Z,17.60
2023-02-07T14:31:59.948Z,16.27
2023-02-07T14:35:16.978Z,18.00
2023-02-07T14:38:46.203Z,17.52
2023-02-07T14:41:52.560Z,18.08
2023-02-07T14:44:57.728Z,17.52
2023-02-07T14:48:27.708Z,17.30
2023-02-07T14:51:41.388Z,19.40
2023-02-07T14:54:58.066Z,15.95
2023-02-07T14:58:12.662Z,16.45
2023-02-07T15:01:20.441Z,25.63
2023-02-07T15:04:25.582Z,18.08
2023-02-07T15:07:30.594Z,16.98
2023-02-07T15:10:53.115Z,19.00
2023-02-07T15:14:03.213Z,17.45
2023-02-07T15:17:08.070Z,18.33
2023-02-07T15:20:17.501Z,16.90
2023-02-07T15:23:24.030Z,25.00
2023-02-07T15:26:29.188Z,20.37
2023-02-07T15:29:37.476Z,19.65
2023-02-07T15:32:46.275Z,18.27
2023-02-07T15:35:51.474Z,18.77
2023-02-07T15:38:58.552Z,19.30
2023-02-07T15:42:05.053Z,19.98
2023-02-07T15:45:25.142Z,20.85
2023-02-07T15:48:31.531Z,22.00
2023-02-07T15:51:41.180Z,21.05
2023-02-07T15:54:50.023Z,20.30
2023-02-07T15:57:55.880Z,20.77
2023-02-07T16:01:06.159Z,20.63
2023-02-07T16:04:15.452Z,19.80
2023-02-07T16:07:22.338Z,25.55
2023-02-07T16:10:30.656Z,23.60
2023-02-07T16:14:21.153Z,24.80
2023-02-07T16:17:39.368Z,24.13
2023-02-07T16:20:44.476Z,23.93
2023-02-07T16:23:52.873Z,25.17
2023-02-07T16:26:59.370Z,23.85
2023-02-07T16:30:05.103Z,25.35
2023-02-07T16:33:13.030Z,25.53
2023-02-07T16:36:19.114Z,27.85
2023-02-07T16:39:24.451Z,31.20
2023-02-07T16:42:29.654Z,33.23
2023-02-07T16:45:34.820Z,28.17
2023-02-07T16:48:40.007Z,29.37
2023-02-07T16:51:45.001Z,29.88
2023-02-07T16:54:50.503Z,29.40
2023-02-07T16:57:56.635Z,32.70
2023-02-07T17:01:02.743Z,30.70
2023-02-07T17:04:07.851Z,30.37
2023-02-07T17:07:13.002Z,32.63
2023-02-07T17:10:29.630Z,32.43
2023-02-07T17:13:34.377Z,34.33
2023-02-07T17:16:39.627Z,42.10
2023-02-07T17:19:47.411Z,35.22
2023-02-07T17:22:53.136Z,34.25
2023-02-07T17:25:58.330Z,35.10
2023-02-07T17:29:03.951Z,33.90
2023-02-07T17:32:09.594Z,37.35
2023-02-07T17:35:15.080Z,33.88
2023-02-07T17:38:19.890Z,35.47
2023-02-07T17:41:25.144Z,34.15
2023-02-07T17:44:30.076Z,35.85
2023-02-07T17:47:34.902Z,34.10
2023-02-07T17:50:41.382Z,34.65
2023-02-07T17:53:47.216Z,33.03
2023-02-07T17:56:52.015Z,35.40
2023-02-07T17:59:56.806Z,37.13
2023-02-07T18:03:01.476Z,36.13
2023-02-07T18:06:06.672Z,38.27
2023-02-07T18:09:19.135Z,39.00
2023-02-07T18:12:23.861Z,38.85
2023-02-07T18:15:30.140Z,38.47
2023-02-07T18:18:35.490Z,39.50
2023-02-07T18:21:40.764Z,38.38
2023-02-07T18:24:45.834Z,36.83
2023-02-07T18:27:51.927Z,39.07
2023-02-07T18:30:57.346Z,40.63
2023-02-07T18:34:02.357Z,41.07
2023-02-07T18:37:07.430Z,45.03
2023-02-07T18:40:13.034Z,42.50
2023-02-07T18:43:18.102Z,39.95
2023-02-07T18:46:23.603Z,35.67
2023-02-07T18:49:29.013Z,38.67
2023-02-07T18:52:34.038Z,39.58
2023-02-07T18:55:38.876Z,39.90
2023-02-07T18:58:47.000Z,43.38
2023-02-07T19:01:53.561Z,49.72
2023-02-07T19:04:58.738Z,49.50
2023-02-07T19:08:04.046Z,55.25
2023-02-07T19:11:10.224Z,59.55
2023-02-07T19:14:30.553Z,51.30
2023-02-07T19:17:36.584Z,61.33
2023-02-07T19:20:41.832Z,63.60
2023-02-07T19:23:47.436Z,57.80
2023-02-07T19:26:56.634Z,69.40
2023-02-07T19:30:01.500Z,57.78
2023-02-07T19:33:06.705Z,53.65
2023-02-07T19:36:12.931Z,57.67
2023-02-07T19:39:18.571Z,51.03
2023-02-07T19:42:24.727Z,47.70
2023-02-07T19:45:30.142Z,47.47
2023-02-07T19:48:35.310Z,53.13
2023-02-07T19:51:40.326Z,53.40
2023-02-07T19:54:45.549Z,58.03
2023-02-07T19:57:50.462Z,58.63
2023-02-07T20:00:57.673Z,60.67
2023-02-07T20:04:02.675Z,54.35
2023-02-07T20:07:07.790Z,52.50
2023-02-07T20:10:13.086Z,52.70
2023-02-07T20:13:18.217Z,56.55
2023-02-07T20:16:25.870Z,57.30
2023-02-07T20:19:31.104Z,52.70
2023-02-07T20:22:36.074Z,52.45
2023-02-07T20:25:40.788Z,54.00
2023-02-07T20:28:46.429Z,55.78
2023-02-07T20:31:52.199Z,50.85
2023-02-07T20:34:57.452Z,52.88
2023-02-07T20:38:02.586Z,52.27
2023-02-07T20:41:29.738Z,53.70
2023-02-07T20:44:35.180Z,54.05
2023-02-07T20:47:40.167Z,54.70
2023-02-07T20:50:44.877Z,54.97
2023-02-07T20:53:50.128Z,57.30
2023-02-07T20:56:56.863Z,58.85
2023-02-07T21:00:01.827Z,55.58
2023-02-07T21:03:07.078Z,54.25
2023-02-07T21:06:12.881Z,54.47
2023-02-07T21:09:18.252Z,48.75
2023-02-07T21:12:23.652Z,51.28
2023-02-07T21:15:28.416Z,50.20
2023-02-07T21:18:34.572Z,50.75
2023-02-07T21:21:39.761Z,47.33
2023-02-07T21:24:44.897Z,48.88
2023-02-07T21:27:49.844Z,47.70
2023-02-07T21:30:54.845Z,47.88
2023-02-07T21:33:59.962Z,46.45
2023-02-07T21:37:05.069Z,44.28
2023-02-07T21:40:10.443Z,43.00
2023-02-07T21:43:15.456Z,48.92
2023-02-07T21:46:24.304Z,49.05
2023-02-07T21:49:29.515Z,49.45
2023-02-07T21:52:34.614Z,43.60
2023-02-07T21:55:39.833Z,47.07
2023-02-07T21:58:45.061Z,47.67
2023-02-07T22:01:50.607Z,49.73
2023-02-07T22:04:55.376Z,41.97
2023-02-07T22:08:00.307Z,43.85
2023-02-07T22:11:11.240Z,44.10
2023-02-07T22:14:16.904Z,43.65
2023-02-07T22:17:23.373Z,43.03
2023-02-07T22:20:28.724Z,40.20
2023-02-07T22:23:33.927Z,41.92
2023-02-07T22:26:39.519Z,40.22
2023-02-07T22:29:44.402Z,37.45
2023-02-07T22:32:49.240Z,37.53
2023-02-07T22:35:54.093Z,36.92
2023-02-07T22:39:01.334Z,39.20
2023-02-07T22:42:06.418Z,38.90
2023-02-07T22:45:11.220Z,40.22
2023-02-07T22:48:16.718Z,39.70
2023-02-07T22:51:26.516Z,38.08
2023-02-07T22:54:31.376Z,38.00
2023-02-07T22:57:36.220Z,40.78
2023-02-07T23:00:42.424Z,34.75
2023-02-07T23:03:47.806Z,38.28
2023-02-07T23:06:52.541Z,37.53
2023-02-07T23:09:57.503Z,36.05
2023-02-07T23:13:02.681Z,33.70
2023-02-07T23:16:17.444Z,34.47
2023-02-07T23:19:22.629Z,32.72
2023-02-07T23:22:27.563Z,34.35
2023-02-07T23:25:32.527Z,31.17
2023-02-07T23:28:37.944Z,31.50
2023-02-07T23:31:43.073Z,32.28
2023-02-07T23:34:47.704Z,31.75
2023-02-07T23:37:52.548Z,31.48
2023-02-07T23:40:57.645Z,32.42
2023-02-07T23:44:02.948Z,31.52
2023-02-07T23:47:08.439Z,32.75
2023-02-07T23:50:13.505Z,33.42
2023-02-07T23:53:18.309Z,32.05
2023-02-07T23:56:23.599Z,29.98
2023-02-07T23:59:28.462Z,29.25
